Time;durP1;ratioP1;P1;durP2;ratioP2;P2;SDS_P1;SDS_P2;PMS_P1;PMS_P2;Temp;Humidity;BMP_temperature;BMP_pressure;BME280_temperature;BME280_humidity;BME280_pressure;Samples;Min_cycle;Max_cycle;Signal;HPM_P1;HPM_P2
2023/06/10 00:00:08;;;;;;;;;;;;;;;;;;5031498;28;19926;-79
2023/06/10 00:02:35;;;;;;;;;;;;;;;;;;5033206;28;19965;-79
2023/06/10 00:05:02;;;;;;;;;;;;;;;;;;5034024;28;19964;-78
2023/06/10 00:07:29;;;;;;;;;;;;;;;;;;5033621;28;19925;-79
2023/06/10 00:09:57;;;;;;;;;;;;;;;;;;5033398;28;20009;-78
2023/06/10 00:12:24;;;;;;;;;;;;;;;;;;5034030;28;19929;-77
2023/06/10 00:14:53;;;;;;;;;;;;;;;;;;5023329;28;20041;-78
2023/06/10 00:17:23;;;;;;;;;;;;;;;;;;5030975;28;20402;-79
2023/06/10 00:19:50;;;;;;;;;;;;;;;;;;5033779;28;19925;-79
2023/06/10 00:22:17;;;;;;;;;;;;;;;;;;5033932;28;19972;-78
2023/06/10 00:24:44;;;;;;;;;;;;;;;;;;5033890;28;19960;-78
2023/06/10 00:27:11;;;;;;;;;;;;;;;;;;5032633;28;19931;-80
2023/06/10 00:29:38;;;;;;;;;;;;;;;;;;5033274;28;19979;-79
2023/06/10 00:32:05;;;;;;;;;;;;;;;;;;5029685;28;19924;-80
2023/06/10 00:34:33;;;;;;;;;;;;;;;;;;5032855;28;19992;-79
2023/06/10 00:37:00;;;;;;;;;;;;;;;;;;5032461;28;19940;-79
2023/06/10 00:39:27;;;;;;;;;;;;;;;;;;5033128;28;20004;-78
2023/06/10 00:41:54;;;;;;;;;;;;;;;;;;5033556;28;20015;-80
2023/06/10 00:44:20;;;;;;;;;;;;;;;;;;5032275;28;19961;-79
2023/06/10 00:46:49;;;;;;;;;;;;;;;;;;5030489;28;19965;-78
2023/06/10 00:49:16;;;;;;;;;;;;;;;;;;5030783;28;19926;-79
2023/06/10 00:51:43;;;;;;;;;;;;;;;;;;5032502;28;19929;-80
2023/06/10 00:54:13;;;;;;;;;;;;;;;;;;5031429;28;19932;-79
2023/06/10 00:56:42;;;;;;;;;;;;;;;;;;5032351;28;19987;-79
2023/06/10 00:59:09;;;;;;;;;;;;;;;;;;5033210;28;20372;-79
2023/06/10 01:01:37;;;;;;;;;;;;;;;;;;5031267;28;20379;-79
2023/06/10 01:04:04;;;;;;;;;;;;;;;;;;5033399;28;19925;-79
2023/06/10 01:06:31;;;;;;;;;;;;;;;;;;5033334;28;19925;-79
2023/06/10 01:08:58;;;;;;;;;;;;;;;;;;5031966;28;20377;-79
2023/06/10 01:11:26;;;;;;;;;;;;;;;;;;5031808;28;19925;-79
2023/06/10 01:13:53;;;;;;;;;;;;;;;;;;5032020;28;19976;-78
2023/06/10 01:16:20;;;;;;;;;;;;;;;;;;5031908;28;19925;-79
2023/06/10 01:18:47;;;;;;;;;;;;;;;;;;5031475;28;20008;-79
2023/06/10 01:21:14;;;;;;;;;;;;;;;;;;5033407;28;19932;-78
2023/06/10 01:23:41;;;;;;;;;;;;;;;;;;5029732;28;19925;-78
2023/06/10 01:26:08;;;;;;;;;;;;;;;;;;5031999;28;20023;-78
2023/06/10 01:28:35;;;;;;;;;;;;;;;;;;5029722;28;19933;-78
2023/06/10 01:31:02;;;;;;;;;;;;;;;;;;5034629;28;20011;-78
2023/06/10 01:33:29;;;;;;;;;;;;;;;;;;5031094;28;20007;-78
2023/06/10 01:35:56;;;;;;;;;;;;;;;;;;5032602;28;19931;-78
2023/06/10 01:38:23;;;;;;;;;;;;;;;;;;5031604;28;20015;-78
2023/06/10 01:40:50;;;;;;;;;;;;;;;;;;5030479;28;19925;-77
2023/06/10 01:43:17;;;;;;;;;;;;;;;;;;5032027;28;20015;-78
2023/06/10 01:45:44;;;;;;;;;;;;;;;;;;5032170;28;20102;-78
2023/06/10 01:48:11;;;;;;;;;;;;;;;;;;5031833;28;19932;-79
2023/06/10 01:50:38;;;;;;;;;;;;;;;;;;5032198;28;19929;-78
2023/06/10 01:53:05;;;;;;;;;;;;;;;;;;5031353;28;19925;-78
2023/06/10 01:55:32;;;;;;;;;;;;;;;;;;5031800;28;20008;-78
2023/06/10 01:57:59;;;;;;;;;;;;;;;;;;5031835;28;19925;-78
2023/06/10 02:00:26;;;;;;;;;;;;;;;;;;5032509;28;19925;-78
2023/06/10 02:02:53;;;;;;;;;;;;;;;;;;5030355;28;19976;-78
2023/06/10 02:05:20;;;;;;;;;;;;;;;;;;5032094;28;19979;-79
2023/06/10 02:07:47;;;;;;;;;;;;;;;;;;5032077;28;20039;-77
2023/06/10 02:10:14;;;;;;;;;;;;;;;;;;5032137;28;19965;-77
2023/06/10 02:12:41;;;;;;;;;;;;;;;;;;5030069;28;19964;-77
2023/06/10 02:15:08;;;;;;;;;;;;;;;;;;5029497;28;19980;-77
2023/06/10 02:17:34;;;;;;;;;;;;;;;;;;5031288;28;20023;-77
2023/06/10 02:20:03;;;;;;;;;;;;;;;;;;5035302;28;20025;-77
2023/06/10 02:22:30;;;;;;;;;;;;;;;;;;5034403;28;20384;-77
2023/06/10 02:24:57;;;;;;;;;;;;;;;;;;5034078;28;20322;-77
2023/06/10 02:27:25;;;;;;;;;;;;;;;;;;5034962;28;19960;-77
2023/06/10 02:29:52;;;;;;;;;;;;;;;;;;5032104;28;20308;-77
2023/06/10 02:32:19;;;;;;;;;;;;;;;;;;5029886;28;20291;-78
2023/06/10 02:34:46;;;;;;;;;;;;;;;;;;5035192;28;20020;-77
2023/06/10 02:37:13;;;;;;;;;;;;;;;;;;5030158;28;19925;-77
2023/06/10 02:39:40;;;;;;;;;;;;;;;;;;5034818;28;20487;-78
2023/06/10 02:42:07;;;;;;;;;;;;;;;;;;5032807;28;20355;-78
2023/06/10 02:44:34;;;;;;;;;;;;;;;;;;5034061;28;20041;-77
2023/06/10 02:47:01;;;;;;;;;;;;;;;;;;5030682;28;19925;-77
2023/06/10 02:49:28;;;;;;;;;;;;;;;;;;5034050;28;20023;-77
2023/06/10 02:51:56;;;;;;;;;;;;;;;;;;5034266;28;19933;-78
2023/06/10 02:54:24;;;;;;;;;;;;;;;;;;5034470;28;19975;-79
2023/06/10 02:56:51;;;;;;;;;;;;;;;;;;5034635;28;19925;-78
2023/06/10 02:59:18;;;;;;;;;;;;;;;;;;5035042;28;20388;-76
2023/06/10 03:01:45;;;;;;;;;;;;;;;;;;5032722;28;20048;-75
2023/06/10 03:04:13;;;;;;;;;;;;;;;;;;5033677;28;19925;-75
2023/06/10 03:06:40;;;;;;;;;;;;;;;;;;5034616;28;19925;-75
2023/06/10 03:09:08;;;;;;;;;;;;;;;;;;5034254;28;19925;-75
2023/06/10 03:11:35;;;;;;;;;;;;;;;;;;5032794;28;20390;-78
2023/06/10 03:14:02;;;;;;;;;;;;;;;;;;5034315;28;19991;-78
2023/06/10 03:16:30;;;;;;;;;;;;;;;;;;5033914;28;20016;-78
2023/06/10 03:18:57;;;;;;;;;;;;;;;;;;5032904;28;19925;-78
2023/06/10 03:21:24;;;;;;;;;;;;;;;;;;5027451;28;19926;-77
2023/06/10 03:23:51;;;;;;;;;;;;;;;;;;5030162;28;19969;-78
2023/06/10 03:26:21;;;;;;;;;;;;;;;;;;5033076;28;20004;-78
2023/06/10 03:28:48;;;;;;;;;;;;;;;;;;5033179;28;19932;-78
2023/06/10 03:31:16;;;;;;;;;;;;;;;;;;5032008;28;20012;-78
2023/06/10 03:33:43;;;;;;;;;;;;;;;;;;5031078;28;19925;-75
2023/06/10 03:36:10;;;;;;;;;;;;;;;;;;5033854;28;19925;-76
2023/06/10 03:38:37;;;;;;;;;;;;;;;;;;5033091;28;19925;-74
2023/06/10 03:41:04;;;;;;;;;;;;;;;;;;5032278;28;19933;-75
2023/06/10 03:43:31;;;;;;;;;;;;;;;;;;5031524;28;19931;-76
2023/06/10 03:45:58;;;;;;;;;;;;;;;;;;5033415;28;20396;-76
2023/06/10 03:48:25;;;;;;;;;;;;;;;;;;5032081;28;19933;-76
2023/06/10 03:50:52;;;;;;;;;;;;;;;;;;5033302;28;20019;-76
2023/06/10 03:53:19;;;;;;;;;;;;;;;;;;5032329;28;20021;-79
2023/06/10 03:55:46;;;;;;;;;;;;;;;;;;5021868;28;19971;-81
2023/06/10 03:58:14;;;;;;;;;;;;;;;;;;5025380;28;19925;-78
2023/06/10 04:00:42;;;;;;;;;;;;;;;;;;5033149;28;19968;-77
2023/06/10 04:03:14;;;;;;;;;;;;;;;;;;5031398;28;19925;-78
2023/06/10 04:05:41;;;;;;;;;;;;;;;;;;5032698;28;20394;-78
2023/06/10 04:08:08;;;;;;;;;;;;;;;;;;5032797;28;20351;-78
2023/06/10 04:10:35;;;;;;;;;;;;;;;;;;5031519;28;20388;-76
2023/06/10 04:13:03;;;;;;;;;;;;;;;;;;5027397;28;19936;-77
2023/06/10 04:15:32;;;;;;;;;;;;;;;;;;5031442;28;20373;-76
2023/06/10 04:17:59;;;;;;;;;;;;;;;;;;5031921;28;19948;-77
2023/06/10 04:20:26;;;;;;;;;;;;;;;;;;5032876;28;19971;-77
2023/06/10 04:22:53;;;;;;;;;;;;;;;;;;4968588;28;1825976;-75
2023/06/10 04:25:20;;;;;;;;;;;;;;;;;;5033047;28;20423;-76
2023/06/10 04:27:47;;;;;;;;;;;;;;;;;;5033463;28;19925;-76
2023/06/10 04:30:14;;;;;;;;;;;;;;;;;;5031954;28;20015;-75
2023/06/10 04:32:41;;;;;;;;;;;;;;;;;;5031358;28;20020;-76
2023/06/10 04:35:08;;;;;;;;;;;;;;;;;;5033481;28;19972;-77
2023/06/10 04:37:35;;;;;;;;;;;;;;;;;;5034360;28;20028;-77
2023/06/10 04:40:03;;;;;;;;;;;;;;;;;;5049866;28;20011;-77
2023/06/10 04:42:30;;;;;;;;;;;;;;;;;;5031417;28;19925;-76
2023/06/10 04:44:57;;;;;;;;;;;;;;;;;;5032225;28;20266;-75
2023/06/10 04:47:24;;;;;;;;;;;;;;;;;;5028395;28;19932;-74
2023/06/10 04:49:52;;;;;;;;;;;;;;;;;;5033023;28;19980;-74
2023/06/10 04:52:19;;;;;;;;;;;;;;;;;;5033003;28;19932;-74
2023/06/10 04:54:46;;;;;;;;;;;;;;;;;;5032284;28;19925;-74
2023/06/10 04:57:13;;;;;;;;;;;;;;;;;;5032753;28;19960;-74
2023/06/10 04:59:40;;;;;;;;;;;;;;;;;;5033205;28;19925;-74
2023/06/10 05:02:07;;;;;;;;;;;;;;;;;;5031393;28;19931;-74
2023/06/10 05:04:34;;;;;;;;;;;;;;;;;;5030887;28;20008;-75
2023/06/10 05:07:01;;;;;;;;;;;;;;;;;;5012598;28;19925;-74
2023/06/10 05:09:28;;;;;;;;;;;;;;;;;;5013402;28;20335;-75
2023/06/10 05:11:55;;;;;;;;;;;;;;;;;;5032235;28;19980;-75
2023/06/10 05:14:22;;;;;;;;;;;;;;;;;;5032455;28;19932;-75
2023/06/10 05:16:49;;;;;;;;;;;;;;;;;;5030988;28;20024;-76
2023/06/10 05:19:17;;;;;;;;;;;;;;;;;;5031502;28;19925;-77
2023/06/10 05:21:44;;;;;;;;;;;;;;;;;;5031746;28;20316;-76
2023/06/10 05:24:11;;;;;;;;;;;;;;;;;;5031944;28;20431;-77
2023/06/10 05:26:38;;;;;;;;;;;;;;;;;;5031811;28;19961;-77
2023/06/10 05:29:05;;;;;;;;;;;;;;;;;;5030639;28;19925;-78
2023/06/10 05:31:32;;;;;;;;;;;;;;;;;;5028625;28;20451;-78
2023/06/10 05:33:59;;;;;;;;;;;;;;;;;;5030113;28;20399;-79
2023/06/10 05:36:26;;;;;;;;;;;;;;;;;;5031809;28;20456;-77
2023/06/10 05:38:53;;;;;;;;;;;;;;;;;;5020313;28;19933;-78
2023/06/10 05:41:21;;;;;;;;;;;;;;;;;;5029638;28;20008;-78
2023/06/10 05:43:48;;;;;;;;;;;;;;;;;;5032189;28;19924;-80
2023/06/10 05:46:15;;;;;;;;;;;;;;;;;;5029274;28;19964;-78
2023/06/10 05:48:42;;;;;;;;;;;;;;;;;;5031297;28;19925;-79
2023/06/10 05:51:10;;;;;;;;;;;;;;;;;;5032518;28;19984;-78
2023/06/10 05:53:38;;;;;;;;;;;;;;;;;;5030868;28;19925;-78
2023/06/10 05:56:05;;;;;;;;;;;;;;;;;;5032032;28;20019;-79
2023/06/10 05:58:32;;;;;;;;;;;;;;;;;;5030849;28;20019;-78
2023/06/10 06:00:59;;;;;;;;;;;;;;;;;;5028103;28;19936;-76
2023/06/10 06:03:28;;;;;;;;;;;;;;;;;;5030353;28;19929;-79
2023/06/10 06:05:55;;;;;;;;;;;;;;;;;;5028130;28;20003;-78
2023/06/10 06:08:22;;;;;;;;;;;;;;;;;;5024090;28;20053;-78
2023/06/10 06:10:49;;;;;;;;;;;;;;;;;;5028847;28;20020;-78
2023/06/10 06:13:16;;;;;;;;;;;;;;;;;;5030943;28;20016;-78
2023/06/10 06:15:43;;;;;;;;;;;;;;;;;;5032081;28;19931;-76
2023/06/10 06:18:10;;;;;;;;;;;;;;;;;;5031592;28;20016;-77
2023/06/10 06:20:37;;;;;;;;;;;;;;;;;;5045314;28;20475;-78
2023/06/10 06:23:04;;;;;;;;;;;;;;;;;;5028805;28;20348;-78
2023/06/10 06:25:31;;;;;;;;;;;;;;;;;;5031467;28;19960;-78
2023/06/10 06:27:58;;;;;;;;;;;;;;;;;;5032664;28;19964;-77
2023/06/10 06:30:25;;;;;;;;;;;;;;;;;;5035200;28;20418;-77
2023/06/10 06:32:52;;;;;;;;;;;;;;;;;;5036178;28;20459;-77
2023/06/10 06:35:19;;;;;;;;;;;;;;;;;;5034091;28;19925;-76
2023/06/10 06:37:46;;;;;;;;;;;;;;;;;;5028211;28;20390;-76
2023/06/10 06:40:13;;;;;;;;;;;;;;;;;;5030736;28;20019;-77
2023/06/10 06:42:40;;;;;;;;;;;;;;;;;;5031184;28;19967;-77
2023/06/10 06:45:07;;;;;;;;;;;;;;;;;;5030924;28;19932;-78
2023/06/10 06:47:34;;;;;;;;;;;;;;;;;;5030892;28;20000;-78
2023/06/10 06:50:01;;;;;;;;;;;;;;;;;;5031633;28;19925;-77
2023/06/10 06:52:28;;;;;;;;;;;;;;;;;;5032855;28;19925;-77
2023/06/10 06:54:55;;;;;;;;;;;;;;;;;;5030232;28;20280;-77
2023/06/10 06:57:23;;;;;;;;;;;;;;;;;;5027164;28;20004;-76
2023/06/10 06:59:50;;;;;;;;;;;;;;;;;;5029917;28;20016;-77
2023/06/10 07:02:18;;;;;;;;;;;;;;;;;;5027691;28;19929;-78
2023/06/10 07:04:46;;;;;;;;;;;;;;;;;;5032862;28;19968;-79
2023/06/10 07:07:13;;;;;;;;;;;;;;;;;;5033199;28;19933;-79
2023/06/10 07:09:40;;;;;;;;;;;;;;;;;;5043070;22;19983;-79
2023/06/10 07:12:08;;;;;;;;;;;;;;;;;;5035186;28;19948;-77
2023/06/10 07:14:35;;;;;;;;;;;;;;;;;;5043542;28;20008;-78
2023/06/10 07:17:02;;;;;;;;;;;;;;;;;;5043693;28;19932;-78
2023/06/10 07:19:28;;;;;;;;;;;;;;;;;;5047724;28;19956;-78
2023/06/10 07:21:56;;;;;;;;;;;;;;;;;;5042821;28;19932;-78
2023/06/10 07:24:23;;;;;;;;;;;;;;;;;;5039973;28;19985;-77
2023/06/10 07:26:50;;;;;;;;;;;;;;;;;;5057514;28;20295;-77
2023/06/10 07:29:17;;;;;;;;;;;;;;;;;;5051075;28;19925;-77
2023/06/10 07:31:44;;;;;;;;;;;;;;;;;;5049063;28;20011;-78
2023/06/10 07:34:11;;;;;;;;;;;;;;;;;;5047313;28;19956;-78
2023/06/10 07:36:38;;;;;;;;;;;;;;;;;;5048083;28;20019;-77
2023/06/10 07:39:05;;;;;;;;;;;;;;;;;;5051272;28;20473;-77
2023/06/10 07:41:32;;;;;;;;;;;;;;;;;;5040902;28;20002;-79
2023/06/10 07:43:59;;;;;;;;;;;;;;;;;;5044234;28;19964;-79
2023/06/10 07:46:27;;;;;;;;;;;;;;;;;;5044218;28;19935;-79
2023/06/10 07:48:53;;;;;;;;;;;;;;;;;;5048567;28;20434;-80
2023/06/10 07:51:20;;;;;;;;;;;;;;;;;;5046330;28;19971;-80
2023/06/10 07:53:47;;;;;;;;;;;;;;;;;;5052819;28;19983;-81
2023/06/10 07:56:14;;;;;;;;;;;;;;;;;;5043427;28;20023;-81
2023/06/10 07:58:41;;;;;;;;;;;;;;;;;;5052736;28;19971;-80
2023/06/10 08:01:08;;;;;;;;;;;;;;;;;;5044188;28;20015;-78
2023/06/10 08:03:35;;;;;;;;;;;;;;;;;;5042525;28;19939;-79
2023/06/10 08:06:02;;;;;;;;;;;;;;;;;;5047854;28;20016;-80
2023/06/10 08:08:29;;;;;;;;;;;;;;;;;;5051439;28;19932;-79
2023/06/10 08:10:56;;;;;;;;;;;;;;;;;;5045050;28;19925;-79
2023/06/10 08:13:23;;;;;;;;;;;;;;;;;;5051251;28;19924;-79
2023/06/10 08:15:53;;;;;;;;;;;;;;;;;;5049598;28;19960;-79
2023/06/10 08:18:20;;;;;;;;;;;;;;;;;;5050397;28;20502;-79
2023/06/10 08:20:47;;;;;;;;;;;;;;;;;;5053356;28;19971;-80
2023/06/10 08:23:14;;;;;;;;;;;;;;;;;;5053728;28;20043;-76
2023/06/10 08:25:41;;;;;;;;;;;;;;;;;;5053782;28;20015;-78
2023/06/10 08:28:11;;;;;;;;;;;;;;;;;;5046529;28;19933;-81
2023/06/10 08:30:38;;;;;;;;;;;;;;;;;;5043272;28;19933;-81
2023/06/10 08:33:05;;;;;;;;;;;;;;;;;;5049651;28;20028;-82
2023/06/10 08:35:32;;;;;;;;;;;;;;;;;;5052884;28;19982;-81
2023/06/10 08:37:59;;;;;;;;;;;;;;;;;;5045480;28;20415;-79
2023/06/10 08:40:26;;;;;;;;;;;;;;;;;;5050068;28;20414;-80
2023/06/10 08:42:53;;;;;;;;;;;;;;;;;;5036508;28;19948;-79
2023/06/10 08:45:20;;;;;;;;;;;;;;;;;;5043892;28;19992;-81
2023/06/10 08:47:47;;;;;;;;;;;;;;;;;;5050677;28;19924;-77
2023/06/10 08:50:14;;;;;;;;;;;;;;;;;;5048676;28;19976;-79
2023/06/10 08:52:41;;;;;;;;;;;;;;;;;;5046160;28;20409;-80
2023/06/10 08:55:09;;;;;;;;;;;;;;;;;;5051439;28;19925;-82
2023/06/10 08:57:36;;;;;;;;;;;;;;;;;;5049713;28;19963;-81
2023/06/10 09:00:03;;;;;;;;;;;;;;;;;;5045501;28;19932;-82
2023/06/10 09:02:31;;;;;;;;;;;;;;;;;;5048459;28;20330;-83
2023/06/10 09:04:58;;;;;;;;;;;;;;;;;;5049505;28;20358;-82
2023/06/10 09:07:25;;;;;;;;;;;;;;;;;;5051890;28;20107;-81
2023/06/10 09:09:53;;;;;;;;;;;;;;;;;;5040517;28;19929;-84
2023/06/10 09:12:20;;;;;;;;;;;;;;;;;;5035281;28;20395;-82
2023/06/10 09:14:47;;;;;;;;;;;;;;;;;;5046677;28;20002;-82
2023/06/10 09:17:14;;;;;;;;;;;;;;;;;;5040909;28;20015;-82
2023/06/10 09:19:41;;;;;;;;;;;;;;;;;;5048936;28;19960;-82
2023/06/10 09:22:08;;;;;;;;;;;;;;;;;;5048107;28;20438;-84
2023/06/10 09:24:35;;;;;;;;;;;;;;;;;;5049144;28;20024;-84
2023/06/10 09:27:02;;;;;;;;;;;;;;;;;;5051700;28;20068;-83
2023/06/10 09:29:29;;;;;;;;;;;;;;;;;;5038698;28;19925;-82
2023/06/10 09:31:56;;;;;;;;;;;;;;;;;;5033479;28;19968;-83
2023/06/10 09:34:23;;;;;;;;;;;;;;;;;;5043108;28;19960;-83
2023/06/10 09:36:50;;;;;;;;;;;;;;;;;;5057452;28;19937;-82
2023/06/10 09:39:17;;;;;;;;;;;;;;;;;;5046094;28;20007;-83
2023/06/10 09:41:44;;;;;;;;;;;;;;;;;;5062756;28;19932;-81
2023/06/10 09:44:11;;;;;;;;;;;;;;;;;;5052790;28;19987;-83
2023/06/10 09:46:38;;;;;;;;;;;;;;;;;;5051272;28;20056;-82
2023/06/10 09:49:05;;;;;;;;;;;;;;;;;;5048323;28;19925;-81
2023/06/10 09:51:32;;;;;;;;;;;;;;;;;;5039430;28;20015;-83
2023/06/10 09:53:59;;;;;;;;;;;;;;;;;;5050206;28;19929;-80
2023/06/10 09:56:26;;;;;;;;;;;;;;;;;;5048087;28;20290;-83
2023/06/10 09:58:53;;;;;;;;;;;;;;;;;;5042487;28;19976;-81
2023/06/10 10:01:20;;;;;;;;;;;;;;;;;;5046607;28;19925;-83
2023/06/10 10:03:47;;;;;;;;;;;;;;;;;;5048062;28;19955;-80
2023/06/10 10:06:14;;;;;;;;;;;;;;;;;;5049531;28;19999;-80
2023/06/10 10:08:41;;;;;;;;;;;;;;;;;;5045442;28;20373;-82
2023/06/10 10:11:08;;;;;;;;;;;;;;;;;;5047901;28;20273;-81
2023/06/10 10:13:35;;;;;;;;;;;;;;;;;;5046668;28;20020;-80
2023/06/10 10:16:02;;;;;;;;;;;;;;;;;;5047819;28;20004;-80
2023/06/10 10:18:30;;;;;;;;;;;;;;;;;;5044938;28;19933;-80
2023/06/10 10:20:57;;;;;;;;;;;;;;;;;;5043065;28;19924;-80
2023/06/10 10:23:24;;;;;;;;;;;;;;;;;;5049139;28;20008;-80
2023/06/10 10:25:51;;;;;;;;;;;;;;;;;;5050640;28;19975;-81
2023/06/10 10:28:18;;;;;;;;;;;;;;;;;;5051627;28;19960;-80
2023/06/10 10:30:48;;;;;;;;;;;;;;;;;;5037427;28;19974;-82
2023/06/10 10:33:15;;;;;;;;;;;;;;;;;;5049067;28;19931;-83
2023/06/10 10:35:43;;;;;;;;;;;;;;;;;;5047175;28;19960;-82
2023/06/10 10:38:10;;;;;;;;;;;;;;;;;;5050420;28;19932;-82
2023/06/10 10:40:37;;;;;;;;;;;;;;;;;;5039125;28;20334;-81
2023/06/10 10:43:04;;;;;;;;;;;;;;;;;;5046638;28;20011;-81
2023/06/10 10:45:31;;;;;;;;;;;;;;;;;;5044037;28;20004;-82
2023/06/10 10:47:58;;;;;;;;;;;;;;;;;;5044174;28;19935;-79
2023/06/10 10:50:25;;;;;;;;;;;;;;;;;;5046133;28;20000;-80
2023/06/10 10:52:52;;;;;;;;;;;;;;;;;;5043147;28;20312;-79
2023/06/10 10:55:19;;;;;;;;;;;;;;;;;;5038272;28;19932;-80
2023/06/10 10:57:46;;;;;;;;;;;;;;;;;;5044426;28;19981;-81
2023/06/10 11:00:13;;;;;;;;;;;;;;;;;;5045397;28;19929;-81
2023/06/10 11:02:41;;;;;;;;;;;;;;;;;;5051250;28;20012;-82
2023/06/10 11:05:08;;;;;;;;;;;;;;;;;;5055873;28;19931;-82
2023/06/10 11:07:36;;;;;;;;;;;;;;;;;;5054033;28;20016;-83
2023/06/10 11:10:03;;;;;;;;;;;;;;;;;;5046570;28;19979;-83
2023/06/10 11:12:30;;;;;;;;;;;;;;;;;;5048860;28;19961;-81
2023/06/10 11:14:57;;;;;;;;;;;;;;;;;;5035984;28;19978;-81
2023/06/10 11:17:24;;;;;;;;;;;;;;;;;;5042005;28;19979;-82
2023/06/10 11:19:51;;;;;;;;;;;;;;;;;;5054357;28;19928;-82
2023/06/10 11:22:18;;;;;;;;;;;;;;;;;;5052821;28;20000;-81
2023/06/10 11:24:45;;;;;;;;;;;;;;;;;;5054960;28;19925;-82
2023/06/10 11:27:12;;;;;;;;;;;;;;;;;;5054430;28;19971;-80
2023/06/10 11:29:39;;;;;;;;;;;;;;;;;;5042124;28;20440;-82
2023/06/10 11:32:06;;;;;;;;;;;;;;;;;;5042490;28;20015;-81
2023/06/10 11:34:34;;;;;;;;;;;;;;;;;;5044274;28;20046;-81
2023/06/10 11:37:01;;;;;;;;;;;;;;;;;;5049404;28;19925;-81
2023/06/10 11:39:29;;;;;;;;;;;;;;;;;;5045502;28;19972;-81
2023/06/10 11:41:56;;;;;;;;;;;;;;;;;;5050540;28;19924;-81
2023/06/10 11:44:23;;;;;;;;;;;;;;;;;;5048487;28;19929;-81
2023/06/10 11:46:51;;;;;;;;;;;;;;;;;;5049959;28;20019;-81
2023/06/10 11:49:18;;;;;;;;;;;;;;;;;;5044780;28;19925;-81
2023/06/10 11:51:49;;;;;;;;;;;;;;;;;;5047483;28;20017;-82
2023/06/10 11:54:17;;;;;;;;;;;;;;;;;;5053181;28;19925;-81
2023/06/10 11:56:44;;;;;;;;;;;;;;;;;;5044342;28;20307;-82
2023/06/10 11:59:11;;;;;;;;;;;;;;;;;;5052139;28;20326;-79
2023/06/10 12:01:39;;;;;;;;;;;;;;;;;;5046403;28;20073;-80
2023/06/10 12:04:06;;;;;;;;;;;;;;;;;;5047614;28;19929;-81
2023/06/10 12:06:33;;;;;;;;;;;;;;;;;;5046911;28;20020;-80
2023/06/10 12:09:00;;;;;;;;;;;;;;;;;;5043914;28;19925;-80
2023/06/10 12:11:27;;;;;;;;;;;;;;;;;;5047538;28;20439;-78
2023/06/10 12:13:54;;;;;;;;;;;;;;;;;;5044073;28;20027;-80
2023/06/10 12:16:22;;;;;;;;;;;;;;;;;;5047327;28;19964;-77
2023/06/10 12:18:49;;;;;;;;;;;;;;;;;;5048520;28;19932;-81
2023/06/10 12:21:16;;;;;;;;;;;;;;;;;;5045233;28;19924;-79
2023/06/10 12:23:43;;;;;;;;;;;;;;;;;;5048778;28;20003;-80
2023/06/10 12:26:10;;;;;;;;;;;;;;;;;;5047309;28;20475;-80
2023/06/10 12:28:37;;;;;;;;;;;;;;;;;;5047418;28;20020;-80
2023/06/10 12:31:04;;;;;;;;;;;;;;;;;;5046007;28;20387;-80
2023/06/10 12:33:31;;;;;;;;;;;;;;;;;;5043866;28;19964;-80
2023/06/10 12:35:58;;;;;;;;;;;;;;;;;;5043569;28;20016;-81
2023/06/10 12:38:26;;;;;;;;;;;;;;;;;;5042294;28;20358;-80
2023/06/10 12:40:53;;;;;;;;;;;;;;;;;;5047197;28;20412;-80
2023/06/10 12:43:20;;;;;;;;;;;;;;;;;;5045817;28;19960;-81
2023/06/10 12:45:47;;;;;;;;;;;;;;;;;;5045897;28;19929;-81
2023/06/10 12:48:15;;;;;;;;;;;;;;;;;;5047436;28;19935;-80
2023/06/10 12:50:41;;;;;;;;;;;;;;;;;;5049470;28;19929;-79
2023/06/10 12:53:08;;;;;;;;;;;;;;;;;;5046493;28;19964;-79
2023/06/10 12:55:36;;;;;;;;;;;;;;;;;;5044479;28;19932;-80
2023/06/10 12:58:03;;;;;;;;;;;;;;;;;;5047634;28;20285;-81
2023/06/10 13:00:30;;;;;;;;;;;;;;;;;;5048027;28;19925;-79
2023/06/10 13:02:57;;;;;;;;;;;;;;;;;;5047565;28;19933;-80
2023/06/10 13:05:24;;;;;;;;;;;;;;;;;;5041604;28;20026;-81
2023/06/10 13:07:51;;;;;;;;;;;;;;;;;;5050552;28;19925;-79
2023/06/10 13:10:18;;;;;;;;;;;;;;;;;;5044891;28;19975;-79
2023/06/10 13:12:46;;;;;;;;;;;;;;;;;;5039473;28;19929;-79
2023/06/10 13:15:13;;;;;;;;;;;;;;;;;;5047350;28;20020;-79
2023/06/10 13:17:40;;;;;;;;;;;;;;;;;;5041556;28;19940;-79
2023/06/10 13:20:07;;;;;;;;;;;;;;;;;;5051254;28;20392;-76
2023/06/10 13:22:36;;;;;;;;;;;;;;;;;;5046791;28;19933;-75
2023/06/10 13:25:03;;;;;;;;;;;;;;;;;;5048200;28;19924;-76
2023/06/10 13:27:30;;;;;;;;;;;;;;;;;;5047507;28;19932;-76
2023/06/10 13:29:57;;;;;;;;;;;;;;;;;;5050613;28;19925;-76
2023/06/10 13:32:24;;;;;;;;;;;;;;;;;;5047144;28;20031;-76
2023/06/10 13:34:53;;;;;;;;;;;;;;;;;;5045075;28;20024;-76
2023/06/10 13:37:20;;;;;;;;;;;;;;;;;;5043996;28;19929;-76
2023/06/10 13:39:48;;;;;;;;;;;;;;;;;;5048981;28;19929;-76
2023/06/10 13:42:15;;;;;;;;;;;;;;;;;;5045742;28;20296;-76
2023/06/10 13:44:42;;;;;;;;;;;;;;;;;;5047016;28;20017;-76
2023/06/10 13:47:09;;;;;;;;;;;;;;;;;;5039938;28;19929;-75
2023/06/10 13:49:36;;;;;;;;;;;;;;;;;;5049778;28;19924;-75
2023/06/10 13:52:03;;;;;;;;;;;;;;;;;;5041737;28;20291;-74
2023/06/10 13:54:30;;;;;;;;;;;;;;;;;;5052202;28;20020;-75
2023/06/10 13:56:57;;;;;;;;;;;;;;;;;;5049614;28;20019;-76
2023/06/10 13:59:24;;;;;;;;;;;;;;;;;;5033088;28;19925;-76
2023/06/10 14:01:51;;;;;;;;;;;;;;;;;;5048247;28;19970;-74
2023/06/10 14:04:18;;;;;;;;;;;;;;;;;;5051163;28;19932;-75
2023/06/10 14:06:45;;;;;;;;;;;;;;;;;;5043263;28;20008;-75
2023/06/10 14:09:12;;;;;;;;;;;;;;;;;;5047245;28;19971;-76
2023/06/10 14:11:39;;;;;;;;;;;;;;;;;;5045350;28;19967;-77
2023/06/10 14:14:06;;;;;;;;;;;;;;;;;;5045721;28;19933;-77
2023/06/10 14:16:33;;;;;;;;;;;;;;;;;;5043822;28;19960;-77
2023/06/10 14:19:00;;;;;;;;;;;;;;;;;;5045050;28;19925;-72
2023/06/10 14:21:27;;;;;;;;;;;;;;;;;;5052638;28;20028;-76
2023/06/10 14:23:54;;;;;;;;;;;;;;;;;;5047547;28;19928;-77
2023/06/10 14:26:22;;;;;;;;;;;;;;;;;;5042612;28;20474;-75
2023/06/10 14:28:49;;;;;;;;;;;;;;;;;;5043081;28;20009;-76
2023/06/10 14:31:16;;;;;;;;;;;;;;;;;;5050950;28;20019;-75
2023/06/10 14:33:43;;;;;;;;;;;;;;;;;;5052321;28;19929;-76
2023/06/10 14:36:10;;;;;;;;;;;;;;;;;;5042916;28;19925;-75
2023/06/10 14:38:37;;;;;;;;;;;;;;;;;;5051497;28;19932;-74
2023/06/10 14:41:04;;;;;;;;;;;;;;;;;;5041714;28;19925;-75
2023/06/10 14:43:31;;;;;;;;;;;;;;;;;;5046198;28;20376;-75
2023/06/10 14:45:58;;;;;;;;;;;;;;;;;;5052736;28;19925;-74
2023/06/10 14:48:25;;;;;;;;;;;;;;;;;;5053049;28;19925;-74
2023/06/10 14:50:54;;;;;;;;;;;;;;;;;;5042585;28;20413;-75
2023/06/10 14:53:21;;;;;;;;;;;;;;;;;;5044887;28;19925;-74
2023/06/10 14:55:48;;;;;;;;;;;;;;;;;;5044312;28;20024;-75
2023/06/10 14:58:15;;;;;;;;;;;;;;;;;;5048719;28;19968;-74
2023/06/10 15:00:42;;;;;;;;;;;;;;;;;;5051825;28;19924;-75
2023/06/10 15:03:09;;;;;;;;;;;;;;;;;;5050161;28;20016;-75
2023/06/10 15:05:37;;;;;;;;;;;;;;;;;;5040639;28;19924;-75
2023/06/10 15:08:04;;;;;;;;;;;;;;;;;;5049965;28;19928;-75
2023/06/10 15:10:31;;;;;;;;;;;;;;;;;;5051423;28;20152;-75
2023/06/10 15:12:58;;;;;;;;;;;;;;;;;;5048243;28;19925;-76
2023/06/10 15:15:25;;;;;;;;;;;;;;;;;;5042883;28;19933;-76
2023/06/10 15:17:52;;;;;;;;;;;;;;;;;;5051414;28;19925;-76
2023/06/10 15:20:19;;;;;;;;;;;;;;;;;;5050481;28;19955;-76
2023/06/10 15:22:46;;;;;;;;;;;;;;;;;;5044291;28;20020;-76
2023/06/10 15:25:13;;;;;;;;;;;;;;;;;;5042760;28;20015;-76
2023/06/10 15:27:40;;;;;;;;;;;;;;;;;;5045579;28;20566;-77
2023/06/10 15:30:07;;;;;;;;;;;;;;;;;;5048418;28;20371;-76
2023/06/10 15:32:34;;;;;;;;;;;;;;;;;;5045906;28;19933;-76
2023/06/10 15:35:01;;;;;;;;;;;;;;;;;;5049050;28;19925;-76
2023/06/10 15:37:28;;;;;;;;;;;;;;;;;;5046409;28;19929;-79
2023/06/10 15:39:55;;;;;;;;;;;;;;;;;;5047447;28;19924;-77
2023/06/10 15:42:23;;;;;;;;;;;;;;;;;;5044073;28;20344;-75
2023/06/10 15:44:52;;;;;;;;;;;;;;;;;;5051058;28;19925;-76
2023/06/10 15:47:19;;;;;;;;;;;;;;;;;;5044842;28;19925;-76
2023/06/10 15:49:46;;;;;;;;;;;;;;;;;;5047685;28;19925;-76
2023/06/10 15:52:13;;;;;;;;;;;;;;;;;;5052482;28;20031;-77
2023/06/10 15:54:40;;;;;;;;;;;;;;;;;;5048214;28;19971;-77
2023/06/10 15:57:08;;;;;;;;;;;;;;;;;;5040759;28;19979;-78
2023/06/10 15:59:35;;;;;;;;;;;;;;;;;;5051444;28;20299;-76
2023/06/10 16:02:03;;;;;;;;;;;;;;;;;;5048311;28;20066;-81
2023/06/10 16:04:30;;;;;;;;;;;;;;;;;;5042789;28;20414;-74
2023/06/10 16:06:57;;;;;;;;;;;;;;;;;;5042143;28;20291;-76
2023/06/10 16:09:24;;;;;;;;;;;;;;;;;;5044176;28;19929;-75
2023/06/10 16:11:51;;;;;;;;;;;;;;;;;;5045920;28;20442;-74
2023/06/10 16:14:18;;;;;;;;;;;;;;;;;;5046613;28;19940;-74
2023/06/10 16:16:45;;;;;;;;;;;;;;;;;;5039440;28;20266;-75
2023/06/10 16:19:12;;;;;;;;;;;;;;;;;;5048986;28;20003;-74
2023/06/10 16:21:39;;;;;;;;;;;;;;;;;;5047335;28;20300;-74
2023/06/10 16:24:06;;;;;;;;;;;;;;;;;;5039328;28;19932;-75
2023/06/10 16:26:33;;;;;;;;;;;;;;;;;;5046842;28;20450;-74
2023/06/10 16:29:00;;;;;;;;;;;;;;;;;;5049365;28;20375;-76
2023/06/10 16:31:27;;;;;;;;;;;;;;;;;;5048290;28;20379;-77
2023/06/10 16:33:54;;;;;;;;;;;;;;;;;;5046971;28;19925;-77
2023/06/10 16:36:21;;;;;;;;;;;;;;;;;;5046216;28;20008;-76
2023/06/10 16:38:48;;;;;;;;;;;;;;;;;;5040419;28;20021;-76
2023/06/10 16:41:15;;;;;;;;;;;;;;;;;;5043193;28;19935;-77
2023/06/10 16:43:42;;;;;;;;;;;;;;;;;;5045601;28;19925;-75